KASE/ASE METAR and TAF weather

Enter ICAO airport designator
Station Type Date Time Source
KASE METAR 2020/01/22 20:57 UTC NOAA

KASE 222057Z 33003KT 6SM HZ FEW007 BKN017 OVC060 00/M04 A3001 RMK AO2 T00001039


Station Type Date Time Source
KASE Decoded METAR 2020/01/22 20:57 UTC NOAA

ASPEN-PITKIN COUNTY AIRPORT, CO, United States (KASE) 39-14N 106-52W 2354M
Jan 22, 2020 - 03:57 PM EST / 2020.01.22 2057 UTC
Wind: from the NNW (330 degrees) at 3 MPH (3 KT):0
Visibility: 6 mile(s):0
Sky conditions: overcast
Weather: haze
Temperature: 32.0 F (0.0 C)
Dew Point: 25.0 F (-3.9 C)
Relative Humidity: 74%
Pressure (altimeter): 30.01 in. Hg (1016 hPa)
ob: KASE 222057Z 33003KT 6SM HZ FEW007 BKN017 OVC060 00/M04 A3001 RMK AO2 T00001039
cycle: 21

Station Type Date Time Source
KASE TAF 2020/01/22 21:52 UTC NOAA

TAF
AMD KASE 222050Z 2221/2318 31005KT 6SM BR VCSH SCT015 BKN025
TEMPO 2222/2224 VRB06KT 2SM -SHSN BR BKN015
FM230600 31005KT 2SM BR BKN015
FM230900 00000KT 1/2SM FG OVC015
FM231200 VRB03KT 4SM BR OVC015
FM231500 VRB03KT P6SM SCT015 BKN050

Example: see airport list